Time;durP1;ratioP1;P1;durP2;ratioP2;P2;SDS_P1;SDS_P2;PMS_P1;PMS_P2;Temp;Humidity;BMP_temperature;BMP_pressure;BME280_temperature;BME280_humidity;BME280_pressure;Samples;Min_cycle;Max_cycle;Signal;HPM_P1;HPM_P2
2023/10/12 00:02:13;;;;;;;0.00;0.00;;;14.00;100.00;;;;;;4978344;28;20065;-76
2023/10/12 00:05:00;;;;;;;0.00;0.00;;;14.10;100.00;;;;;;4987285;28;20132;-77
2023/10/12 00:07:34;;;;;;;0.00;0.00;;;14.10;100.00;;;;;;4984268;28;20464;-77
2023/10/12 00:12:46;;;;;;;0.00;0.00;;;14.00;100.00;;;;;;4990010;28;20442;-76
2023/10/12 00:15:29;;;;;;;0.00;0.00;;;14.10;100.00;;;;;;4981441;28;20066;-70
2023/10/12 00:17:59;;;;;;;0.00;0.00;;;14.00;100.00;;;;;;4967826;28;20054;-71
2023/10/12 00:22:58;;;;;;;0.00;0.00;;;14.00;100.00;;;;;;4984218;28;20050;-71
2023/10/12 00:25:26;;;;;;;0.00;0.00;;;14.00;100.00;;;;;;4988719;28;20050;-71
2023/10/12 00:27:53;;;;;;;0.00;0.00;;;14.00;100.00;;;;;;4988558;28;20506;-71
2023/10/12 00:30:20;;;;;;;0.00;0.00;;;14.00;100.00;;;;;;4972943;28;20686;-71
2023/10/12 00:32:48;;;;;;;0.00;0.00;;;14.00;100.00;;;;;;4980478;28;20482;-71
2023/10/12 00:35:17;;;;;;;0.00;0.00;;;14.00;100.00;;;;;;4989711;28;20058;-71
2023/10/12 00:37:44;;;;;;;0.00;0.00;;;14.00;100.00;;;;;;4986392;28;20394;-71
2023/10/12 00:40:30;;;;;;;0.00;0.00;;;13.80;100.00;;;;;;4987124;28;20050;-71
2023/10/12 00:43:00;;;;;;;0.00;0.00;;;13.70;100.00;;;;;;4987101;28;20050;-71
2023/10/12 00:45:34;;;;;;;0.00;0.00;;;13.60;100.00;;;;;;4973070;28;20054;-71
2023/10/12 00:48:03;;;;;;;0.00;0.00;;;13.50;100.00;;;;;;4987669;28;20058;-71
2023/10/12 00:50:31;;;;;;;0.00;0.00;;;13.30;100.00;;;;;;4985414;28;20478;-71
2023/10/12 00:53:15;;;;;;;0.00;0.00;;;13.20;100.00;;;;;;4969143;28;20042;-71
2023/10/12 00:55:43;;;;;;;0.00;0.00;;;13.10;100.00;;;;;;4986074;28;20054;-71
2023/10/12 00:58:10;;;;;;;0.00;0.00;;;13.00;100.00;;;;;;4969750;28;20511;-71
2023/10/12 01:00:44;;;;;;;0.00;0.00;;;12.90;100.00;;;;;;4984928;28;20054;-71
2023/10/12 01:03:31;;;;;;;0.00;0.00;;;12.80;100.00;;;;;;4971103;28;20146;-71
2023/10/12 01:06:20;;;;;;;0.00;0.00;;;12.70;100.00;;;;;;4968207;28;20484;-71
2023/10/12 01:08:48;;;;;;;0.00;0.00;;;12.70;100.00;;;;;;4987215;28;20046;-71
2023/10/12 01:11:26;;;;;;;0.00;0.00;;;12.70;100.00;;;;;;4985905;28;20105;-71
2023/10/12 01:16:23;;;;;;;0.00;0.00;;;12.60;100.00;;;;;;4982486;28;20137;-71
2023/10/12 01:19:05;;;;;;;0.00;0.00;;;12.50;100.00;;;;;;4985576;28;20053;-71
2023/10/12 01:21:36;;;;;;;0.00;0.00;;;12.50;100.00;;;;;;4985236;28;20077;-71
2023/10/12 01:24:12;;;;;;;0.00;0.00;;;12.50;100.00;;;;;;4985838;28;20137;-71
2023/10/12 01:26:43;;;;;;;0.00;0.00;;;12.40;100.00;;;;;;4986467;28;20046;-71
2023/10/12 01:29:20;;;;;;;0.00;0.00;;;12.40;100.00;;;;;;4968973;28;20069;-70
2023/10/12 01:32:01;;;;;;;0.00;0.00;;;12.40;100.00;;;;;;4987352;28;20136;-70
2023/10/12 01:34:29;;;;;;;0.00;0.00;;;12.30;100.00;;;;;;4983242;28;20054;-70
2023/10/12 01:36:58;;;;;;;0.00;0.00;;;12.30;100.00;;;;;;4969688;28;20062;-70
2023/10/12 01:39:28;;;;;;;0.00;0.00;;;12.30;100.00;;;;;;4986138;28;20058;-70
2023/10/12 01:41:56;;;;;;;0.00;0.00;;;12.30;100.00;;;;;;4985236;28;20054;-70
2023/10/12 01:44:24;;;;;;;0.00;0.00;;;12.20;100.00;;;;;;4968052;28;20096;-70
2023/10/12 01:46:51;;;;;;;0.00;0.00;;;12.20;100.00;;;;;;4985311;28;20105;-70
2023/10/12 01:49:18;;;;;;;0.00;0.00;;;12.20;100.00;;;;;;4982419;28;20057;-70
2023/10/12 01:51:45;;;;;;;0.00;0.00;;;12.20;100.00;;;;;;4985882;28;20050;-70
2023/10/12 01:54:21;;;;;;;0.00;0.00;;;12.20;100.00;;;;;;4970500;28;20077;-70
2023/10/12 01:56:53;;;;;;;0.00;0.00;;;12.20;100.00;;;;;;4987015;23;20047;-75
2023/10/12 01:59:20;;;;;;;0.28;0.25;;;12.10;100.00;;;;;;4969154;28;20077;-76
2023/10/12 02:01:47;;;;;;;0.00;0.00;;;12.10;100.00;;;;;;4969587;28;20448;-75
2023/10/12 02:04:14;;;;;;;0.00;0.00;;;12.10;100.00;;;;;;4971219;28;20070;-75
2023/10/12 02:06:43;;;;;;;0.00;0.00;;;12.00;100.00;;;;;;4970168;28;20133;-75
2023/10/12 02:09:10;;;;;;;0.00;0.00;;;12.00;100.00;;;;;;4970420;28;20050;-75
2023/10/12 02:11:45;;;;;;;0.00;0.00;;;12.00;100.00;;;;;;4972692;28;20058;-75
2023/10/12 02:14:13;;;;;;;0.00;0.00;;;12.00;100.00;;;;;;4971589;28;20046;-75
2023/10/12 02:16:53;;;;;;;0.00;0.00;;;12.00;100.00;;;;;;4976296;28;20064;-75
2023/10/12 02:19:42;;;;;;;0.00;0.00;;;11.90;100.00;;;;;;4973515;28;20161;-75
2023/10/12 02:22:19;;;;;;;0.00;0.00;;;11.90;100.00;;;;;;4975284;28;20495;-75
2023/10/12 02:27:33;;;;;;;0.00;0.00;;;11.90;100.00;;;;;;4969321;28;20125;-75
2023/10/12 02:30:00;;;;;;;0.00;0.00;;;11.90;100.00;;;;;;4990336;28;20488;-75
2023/10/12 02:32:27;;;;;;;0.00;0.00;;;11.80;100.00;;;;;;4974837;28;20054;-75
2023/10/12 02:35:00;;;;;;;0.00;0.00;;;11.80;100.00;;;;;;4969631;28;20074;-75
2023/10/12 02:37:27;;;;;;;0.00;0.00;;;11.80;100.00;;;;;;4973262;28;20133;-75
2023/10/12 02:39:56;;;;;;;0.00;0.00;;;11.80;100.00;;;;;;4970510;28;20078;-75
2023/10/12 02:42:38;;;;;;;0.00;0.00;;;11.80;100.00;;;;;;4969891;28;20075;-75
2023/10/12 02:45:10;;;;;;;0.00;0.00;;;11.80;100.00;;;;;;4963693;28;20162;-75
2023/10/12 02:47:40;;;;;;;0.00;0.00;;;11.70;100.00;;;;;;4971967;28;20081;-75
2023/10/12 02:52:37;;;;;;;0.00;0.00;;;11.70;100.00;;;;;;4972314;28;20044;-75
2023/10/12 02:55:17;;;;;;;0.00;0.00;;;11.70;100.00;;;;;;4969618;28;20043;-75
2023/10/12 03:00:54;;;;;;;0.00;0.00;;;11.70;100.00;;;;;;4903757;29;20587;-76
2023/10/12 03:06:00;;;;;;;0.00;0.00;;;11.70;100.00;;;;;;4963865;28;20155;-75
2023/10/12 03:08:31;;;;;;;0.00;0.00;;;11.70;100.00;;;;;;4969835;28;20403;-75
2023/10/12 03:11:11;;;;;;;0.00;0.00;;;11.70;100.00;;;;;;4966296;28;20134;-75
2023/10/12 03:13:42;;;;;;;0.00;0.00;;;11.60;100.00;;;;;;4963560;28;20055;-75
2023/10/12 03:18:46;;;;;;;0.00;0.00;;;11.70;100.00;;;;;;4969720;28;20642;-75
2023/10/12 03:21:14;;;;;;;0.00;0.00;;;11.60;100.00;;;;;;4965195;28;20082;-76
2023/10/12 03:23:46;;;;;;;0.00;0.00;;;11.60;100.00;;;;;;4971858;28;20058;-76
2023/10/12 03:26:49;;;;;;;0.00;0.00;;;11.60;100.00;;;;;;4968976;28;20129;-76
2023/10/12 03:34:35;;;;;;;0.00;0.00;;;11.60;100.00;;;;;;4964822;28;20134;-75
2023/10/12 03:37:13;;;;;;;0.00;0.00;;;11.60;100.00;;;;;;4967461;28;20059;-74
2023/10/12 03:39:59;;;;;;;0.00;0.00;;;11.60;100.00;;;;;;4967026;28;20061;-74
2023/10/12 03:45:08;;;;;;;0.00;0.00;;;11.50;100.00;;;;;;4965177;28;20510;-74
2023/10/12 03:48:03;;;;;;;0.00;0.00;;;11.50;100.00;;;;;;4964891;28;20042;-74
2023/10/12 03:50:51;;;;;;;0.00;0.00;;;11.50;100.00;;;;;;4965757;28;20066;-74
2023/10/12 03:53:26;;;;;;;0.00;0.00;;;11.40;100.00;;;;;;4968195;28;20042;-74
2023/10/12 03:56:00;;;;;;;0.00;0.00;;;11.30;100.00;;;;;;4969983;28;20050;-74
2023/10/12 03:58:28;;;;;;;0.00;0.00;;;11.30;100.00;;;;;;4971138;28;20054;-74
2023/10/12 04:04:08;;;;;;;0.00;0.00;;;11.20;100.00;;;;;;4968253;28;20130;-74
2023/10/12 04:09:31;;;;;;;0.00;0.00;;;11.10;100.00;;;;;;4968563;28;20129;-70
2023/10/12 04:14:56;;;;;;;0.00;0.00;;;11.10;100.00;;;;;;4954965;28;20046;-70
2023/10/12 04:25:13;;;;;;;0.00;0.00;;;11.00;100.00;;;;;;4968700;28;20093;-70
2023/10/12 04:27:47;;;;;;;0.00;0.00;;;10.90;100.00;;;;;;4964793;28;20115;-70
2023/10/12 04:31:20;;;;;;;0.00;0.00;;;10.90;100.00;;;;;;4970237;28;20110;-70
2023/10/12 04:33:24;;;;;;;0.00;0.00;;;10.90;100.00;;;;;;4969993;28;20666;-70
2023/10/12 04:36:01;;;;;;;0.00;0.00;;;10.80;100.00;;;;;;4967162;28;20039;-71
2023/10/12 04:42:25;;;;;;;0.00;0.00;;;10.80;100.00;;;;;;4963006;28;20051;-70
2023/10/12 04:45:02;;;;;;;0.00;0.00;;;10.80;100.00;;;;;;4962582;28;20062;-70
2023/10/12 04:47:30;;;;;;;0.00;0.00;;;10.80;100.00;;;;;;4965511;28;20594;-70
2023/10/12 04:49:57;;;;;;;0.00;0.00;;;10.70;100.00;;;;;;4976029;28;20046;-70
2023/10/12 04:52:32;;;;;;;0.00;0.00;;;10.70;100.00;;;;;;4966368;28;20250;-70
2023/10/12 04:55:06;;;;;;;0.00;0.00;;;10.70;100.00;;;;;;4965039;28;20449;-70
2023/10/12 04:57:34;;;;;;;0.00;0.00;;;10.70;100.00;;;;;;4972104;28;20161;-70
2023/10/12 05:07:57;;;;;;;0.00;0.00;;;10.60;100.00;;;;;;4963861;28;20424;-70
2023/10/12 05:10:32;;;;;;;0.00;0.00;;;10.60;100.00;;;;;;4964343;28;20053;-70
2023/10/12 05:13:05;;;;;;;0.00;0.00;;;10.60;100.00;;;;;;4962552;28;20468;-70
2023/10/12 05:15:41;;;;;;;0.00;0.00;;;10.60;100.00;;;;;;4974708;28;20050;-70
2023/10/12 05:18:12;;;;;;;0.00;0.00;;;10.60;100.00;;;;;;4963927;28;20494;-70
2023/10/12 05:20:41;;;;;;;0.00;0.00;;;10.60;100.00;;;;;;4978989;28;20051;-70
2023/10/12 05:23:09;;;;;;;0.00;0.00;;;10.50;100.00;;;;;;4961988;28;20054;-74
2023/10/12 05:28:57;;;;;;;0.00;0.00;;;10.50;100.00;;;;;;4941385;28;20110;-73
2023/10/12 05:31:28;;;;;;;0.00;0.00;;;10.50;100.00;;;;;;4921995;29;20139;-73
2023/10/12 05:34:18;;;;;;;0.00;0.00;;;10.50;100.00;;;;;;4946143;28;20140;-70
2023/10/12 05:36:45;;;;;;;0.00;0.00;;;10.50;100.00;;;;;;4965464;28;20061;-70
2023/10/12 05:39:12;;;;;;;0.00;0.00;;;10.50;100.00;;;;;;4961598;28;20050;-70
2023/10/12 05:41:40;;;;;;;0.00;0.00;;;10.50;100.00;;;;;;4966257;28;20114;-70
2023/10/12 05:44:13;;;;;;;0.00;0.00;;;10.50;100.00;;;;;;4966424;28;20086;-70
2023/10/12 05:46:43;;;;;;;0.00;0.00;;;10.40;100.00;;;;;;4961078;28;20050;-70
2023/10/12 05:49:14;;;;;;;0.00;0.00;;;10.40;100.00;;;;;;4962384;28;20499;-70
2023/10/12 05:51:44;;;;;;;0.30;0.30;;;10.40;100.00;;;;;;4979745;28;20047;-70
2023/10/12 05:54:16;;;;;;;0.00;0.00;;;10.40;100.00;;;;;;4968014;28;20059;-70
2023/10/12 05:56:43;;;;;;;0.00;0.00;;;10.40;100.00;;;;;;4965766;28;20062;-70
2023/10/12 05:59:13;;;;;;;0.00;0.00;;;10.40;100.00;;;;;;4977741;28;20073;-70
2023/10/12 06:01:45;;;;;;;0.00;0.00;;;10.40;100.00;;;;;;4962775;28;20047;-70
2023/10/12 06:04:16;;;;;;;22.38;3.85;;;10.40;100.00;;;;;;4962440;28;20178;-70
2023/10/12 06:06:43;;;;;;;0.00;0.00;;;10.50;100.00;;;;;;4978491;28;20415;-70
2023/10/12 06:09:12;;;;;;;0.00;0.00;;;10.50;100.00;;;;;;4968119;28;20167;-70
2023/10/12 06:11:45;;;;;;;0.00;0.00;;;10.50;100.00;;;;;;4960273;28;20105;-71
2023/10/12 06:14:14;;;;;;;0.00;0.00;;;10.50;100.00;;;;;;4984341;28;20758;-70
2023/10/12 06:16:42;;;;;;;0.00;0.00;;;10.50;100.00;;;;;;4968480;28;20105;-70
2023/10/12 06:19:34;;;;;;;0.00;0.00;;;10.50;100.00;;;;;;4980679;28;20051;-70
2023/10/12 06:22:21;;;;;;;0.00;0.00;;;10.50;100.00;;;;;;4961032;28;20149;-70
2023/10/12 06:24:53;;;;;;;0.00;0.00;;;10.60;100.00;;;;;;4965017;28;20055;-70
2023/10/12 06:29:49;;;;;;;0.00;0.00;;;10.70;100.00;;;;;;4961210;28;20209;-70
2023/10/12 06:32:19;;;;;;;0.00;0.00;;;10.70;100.00;;;;;;4964784;28;20137;-70
2023/10/12 06:35:13;;;;;;;0.00;0.00;;;10.70;100.00;;;;;;4963616;28;20042;-70
2023/10/12 06:37:49;;;;;;;0.00;0.00;;;10.80;100.00;;;;;;4961683;28;20829;-69
2023/10/12 06:45:51;;;;;;;0.00;0.00;;;10.90;100.00;;;;;;4962299;28;20051;-70
2023/10/12 06:51:11;;;;;;;0.00;0.00;;;11.00;100.00;;;;;;4964051;28;20073;-70
2023/10/12 06:53:41;;;;;;;0.00;0.00;;;11.00;100.00;;;;;;4963822;28;20344;-70
2023/10/12 07:01:51;;;;;;;0.00;0.00;;;11.00;100.00;;;;;;4970245;28;20540;-70
2023/10/12 07:04:27;;;;;;;0.00;0.00;;;11.00;100.00;;;;;;4967047;28;20147;-70
2023/10/12 07:07:10;;;;;;;0.00;0.00;;;11.00;100.00;;;;;;4960914;28;21216;-69
2023/10/12 07:09:46;;;;;;;0.00;0.00;;;11.10;100.00;;;;;;4984633;28;20043;-70
2023/10/12 07:12:20;;;;;;;0.00;0.00;;;11.10;100.00;;;;;;4960080;28;20370;-70
2023/10/12 07:14:52;;;;;;;0.00;0.00;;;11.10;100.00;;;;;;4966200;28;20476;-70
2023/10/12 07:17:48;;;;;;;0.00;0.00;;;11.20;100.00;;;;;;4963817;28;20046;-70
2023/10/12 07:20:25;;;;;;;0.00;0.00;;;11.20;100.00;;;;;;4961413;28;20051;-70
2023/10/12 07:22:52;;;;;;;;;;;11.20;100.00;;;;;;4980364;28;20150;-69
2023/10/12 07:25:23;;;;;;;0.00;0.00;;;11.30;100.00;;;;;;4960877;28;19930;-73
2023/10/12 07:27:59;;;;;;;0.30;0.30;;;11.30;100.00;;;;;;4961416;28;20479;-72
2023/10/12 07:30:43;;;;;;;0.00;0.00;;;11.30;100.00;;;;;;4962611;28;20067;-71
2023/10/12 07:33:10;;;;;;;0.00;0.00;;;11.30;100.00;;;;;;4963367;28;20060;-72
2023/10/12 07:35:39;;;;;;;0.00;0.00;;;11.40;100.00;;;;;;4977649;28;20094;-73
2023/10/12 07:38:15;;;;;;;0.00;0.00;;;11.40;100.00;;;;;;4964668;28;20468;-70
2023/10/12 07:41:00;;;;;;;;;;;;;;;;;;;;;
2023/10/12 07:43:26;;;;;;;0.00;0.00;;;11.50;100.00;;;;;;4966466;28;20059;-72
2023/10/12 07:45:54;;;;;;;0.00;0.00;;;11.50;100.00;;;;;;4967783;28;20807;-70
2023/10/12 07:48:31;;;;;;;0.00;0.00;;;11.60;100.00;;;;;;4967088;28;20154;-69
2023/10/12 07:51:19;;;;;;;0.00;0.00;;;11.70;100.00;;;;;;4966324;28;20313;-72
2023/10/12 07:53:51;;;;;;;0.00;0.00;;;11.70;100.00;;;;;;4968997;28;20050;-69
2023/10/12 07:56:18;;;;;;;0.00;0.00;;;11.70;100.00;;;;;;4972211;28;20058;-72
2023/10/12 07:58:57;;;;;;;0.00;0.00;;;11.80;100.00;;;;;;4971295;28;20079;-71
2023/10/12 08:03:58;;;;;;;0.00;0.00;;;11.90;100.00;;;;;;4967880;28;20065;-72
2023/10/12 08:06:42;;;;;;;0.00;0.00;;;11.90;100.00;;;;;;4963614;28;20062;-72
2023/10/12 08:11:53;;;;;;;0.00;0.00;;;11.90;100.00;;;;;;4964206;28;20054;-72
2023/10/12 08:19:39;;;;;;;0.00;0.00;;;12.00;100.00;;;;;;4968602;28;20054;-71
2023/10/12 08:22:17;;;;;;;0.00;0.00;;;12.00;100.00;;;;;;4982328;28;20279;-72
2023/10/12 08:24:46;;;;;;;0.00;0.00;;;12.00;100.00;;;;;;4977021;28;20740;-72
2023/10/12 08:27:13;;;;;;;0.00;0.00;;;12.00;100.00;;;;;;4966576;28;20055;-70
2023/10/12 08:39:39;;;;;;;0.00;0.00;;;12.10;100.00;;;;;;4966632;28;20412;-71
2023/10/12 08:44:54;;;;;;;0.00;0.00;;;12.30;100.00;;;;;;4964358;28;20105;-70
2023/10/12 08:50:08;;;;;;;0.00;0.00;;;12.60;100.00;;;;;;4962405;28;20137;-69
2023/10/12 08:52:39;;;;;;;0.00;0.00;;;12.80;100.00;;;;;;4965394;28;20053;-69
2023/10/12 08:55:13;;;;;;;0.00;0.00;;;12.90;100.00;;;;;;4958299;28;20055;-70
2023/10/12 08:58:01;;;;;;;0.00;0.00;;;12.90;100.00;;;;;;4967245;28;20149;-70
2023/10/12 09:03:06;;;;;;;0.00;0.00;;;12.80;100.00;;;;;;4967126;28;20062;-69
2023/10/12 09:05:39;;;;;;;0.00;0.00;;;12.80;100.00;;;;;;4965346;28;20047;-70
2023/10/12 09:10:54;;;;;;;0.00;0.00;;;13.00;100.00;;;;;;4968738;28;20182;-69
2023/10/12 09:13:24;;;;;;;0.00;0.00;;;13.10;99.80;;;;;;4965239;28;20481;-70
2023/10/12 09:16:00;;;;;;;0.00;0.00;;;13.20;97.40;;;;;;4979139;28;20672;-69
2023/10/12 09:18:35;;;;;;;0.00;0.00;;;13.30;99.60;;;;;;4972554;28;20054;-70
2023/10/12 09:36:37;;;;;;;0.00;0.00;;;14.00;92.50;;;;;;4959212;28;20054;-69
2023/10/12 09:39:48;;;;;;;0.00;0.00;;;14.10;92.00;;;;;;4959728;28;20059;-70
2023/10/12 09:42:09;;;;;;;0.00;0.00;;;14.20;91.70;;;;;;4959618;28;20769;-70
2023/10/12 09:44:39;;;;;;;0.00;0.00;;;14.50;91.50;;;;;;4980093;28;20073;-69
2023/10/12 09:47:26;;;;;;;0.00;0.00;;;14.70;87.50;;;;;;4976859;28;20201;-68
2023/10/12 09:49:58;;;;;;;0.00;0.00;;;14.80;90.00;;;;;;4964054;28;20042;-69
2023/10/12 09:52:46;;;;;;;0.00;0.00;;;14.70;86.80;;;;;;4985979;28;20101;-69
2023/10/12 09:55:24;;;;;;;0.00;0.00;;;14.60;87.70;;;;;;4968634;28;20535;-68
2023/10/12 09:57:52;;;;;;;0.00;0.00;;;14.60;86.50;;;;;;4971968;28;20096;-70
2023/10/12 10:00:55;;;;;;;0.00;0.00;;;14.60;86.40;;;;;;4980868;28;20055;-70
2023/10/12 10:03:17;;;;;;;0.00;0.00;;;14.70;87.40;;;;;;4958829;28;20046;-71
2023/10/12 10:05:54;;;;;;;9.23;2.13;;;14.70;87.10;;;;;;4959590;28;20050;-70
2023/10/12 10:08:29;;;;;;;0.00;0.00;;;14.70;87.40;;;;;;4961943;28;20047;-70
2023/10/12 10:10:57;;;;;;;0.00;0.00;;;14.80;86.80;;;;;;4974897;28;20841;-70
2023/10/12 10:13:41;;;;;;;0.00;0.00;;;14.70;84.20;;;;;;4964749;28;20113;-71
2023/10/12 10:16:10;;;;;;;0.00;0.00;;;14.80;84.80;;;;;;4961766;28;20058;-71
2023/10/12 10:19:13;;;;;;;0.00;0.00;;;14.90;82.80;;;;;;4966308;28;20054;-70
2023/10/12 10:21:51;;;;;;;0.00;0.00;;;14.90;82.50;;;;;;4966446;28;20085;-71
2023/10/12 10:24:24;;;;;;;0.00;0.00;;;15.00;84.60;;;;;;4964246;28;20054;-71
2023/10/12 10:27:16;;;;;;;0.00;0.00;;;14.80;84.40;;;;;;4973519;28;20046;-70
2023/10/12 10:29:54;;;;;;;0.00;0.00;;;14.90;83.30;;;;;;4959651;28;20078;-69
2023/10/12 10:32:38;;;;;;;0.10;0.10;;;14.80;81.10;;;;;;4978797;28;20105;-71
2023/10/12 10:35:18;;;;;;;0.00;0.00;;;14.70;82.30;;;;;;4959066;28;20101;-70
2023/10/12 10:37:59;;;;;;;0.00;0.00;;;14.80;82.30;;;;;;4962807;28;20129;-70
2023/10/12 10:40:44;;;;;;;0.10;0.10;;;14.80;83.70;;;;;;4958920;28;20077;-69
2023/10/12 10:43:15;;;;;;;0.00;0.00;;;14.90;82.30;;;;;;4961037;28;20059;-69
2023/10/12 10:46:03;;;;;;;0.00;0.00;;;15.00;81.80;;;;;;4978457;28;20283;-69
2023/10/12 10:48:34;;;;;;;0.00;0.00;;;15.00;82.10;;;;;;4960134;28;20051;-69
2023/10/12 10:51:32;;;;;;;0.00;0.00;;;15.20;84.30;;;;;;4959619;28;20134;-69
2023/10/12 10:54:00;;;;;;;0.00;0.00;;;15.10;80.40;;;;;;4961467;28;20559;-71
2023/10/12 10:56:36;;;;;;;0.00;0.00;;;15.10;83.30;;;;;;4984745;28;20137;-70
2023/10/12 10:59:12;;;;;;;0.00;0.00;;;15.10;83.00;;;;;;4960278;28;20472;-71
2023/10/12 11:01:46;;;;;;;0.22;0.22;;;15.20;79.60;;;;;;4963459;28;20054;-70
2023/10/12 11:07:03;;;;;;;0.00;0.00;;;15.50;81.80;;;;;;4960970;28;20058;-70
2023/10/12 11:09:48;;;;;;;0.00;0.00;;;15.50;80.10;;;;;;4961326;28;20137;-70
2023/10/12 11:12:15;;;;;;;0.00;0.00;;;15.70;79.30;;;;;;4961307;28;20137;-70
2023/10/12 11:14:52;;;;;;;0.00;0.00;;;15.90;81.00;;;;;;4957369;28;20047;-68
2023/10/12 11:17:20;;;;;;;0.00;0.00;;;16.30;79.40;;;;;;4980569;28;20074;-69
2023/10/12 11:19:50;;;;;;;0.00;0.00;;;16.70;79.80;;;;;;4964897;28;20101;-69
2023/10/12 11:22:19;;;;;;;0.00;0.00;;;17.20;75.70;;;;;;4963993;28;20109;-69
2023/10/12 11:24:48;;;;;;;0.00;0.00;;;17.10;76.20;;;;;;4956890;28;20136;-71
2023/10/12 11:27:32;;;;;;;0.00;0.00;;;17.40;74.90;;;;;;4976273;28;20141;-70
2023/10/12 11:30:00;;;;;;;0.00;0.00;;;17.60;70.60;;;;;;4965433;28;20597;-70
2023/10/12 11:32:32;;;;;;;0.00;0.00;;;18.00;68.70;;;;;;4964781;28;20054;-69
2023/10/12 11:35:00;;;;;;;0.00;0.00;;;18.20;66.70;;;;;;4959607;28;20535;-68
2023/10/12 11:37:30;;;;;;;0.00;0.00;;;18.60;68.20;;;;;;4955220;28;20074;-74
2023/10/12 11:39:57;;;;;;;0.00;0.00;;;19.20;65.20;;;;;;4958606;28;20078;-74
2023/10/12 11:42:24;;;;;;;0.70;0.57;;;19.30;65.70;;;;;;4959509;28;20202;-74
2023/10/12 11:44:52;;;;;;;0.00;0.00;;;19.30;64.60;;;;;;4973388;28;20574;-76
2023/10/12 11:47:27;;;;;;;0.00;0.00;;;19.40;66.70;;;;;;4961365;28;20360;-75
2023/10/12 11:49:57;;;;;;;0.00;0.00;;;19.90;64.40;;;;;;4960808;28;20539;-75
2023/10/12 11:52:30;;;;;;;0.00;0.00;;;19.60;59.70;;;;;;4958135;28;20568;-76
2023/10/12 11:55:21;;;;;;;0.00;0.00;;;19.30;59.30;;;;;;4963062;28;20068;-75
2023/10/12 11:57:54;;;;;;;0.00;0.00;;;18.50;60.30;;;;;;4982803;28;20051;-76
2023/10/12 12:00:41;;;;;;;0.00;0.00;;;18.10;65.30;;;;;;4959225;28;20346;-75
2023/10/12 12:03:10;;;;;;;0.10;0.10;;;18.90;65.40;;;;;;4959146;28;20109;-76
2023/10/12 12:05:37;;;;;;;0.00;0.00;;;19.60;59.30;;;;;;4958692;28;20504;-74
2023/10/12 12:08:18;;;;;;;0.00;0.00;;;20.00;60.00;;;;;;4959933;28;20070;-76
2023/10/12 12:13:20;;;;;;;0.00;0.00;;;18.70;61.20;;;;;;4961882;28;20132;-74
2023/10/12 12:15:48;;;;;;;0.17;0.17;;;18.60;62.60;;;;;;4957008;28;20474;-75
2023/10/12 12:20:44;;;;;;;0.00;0.00;;;17.60;62.90;;;;;;4963414;28;20058;-75
2023/10/12 12:23:12;;;;;;;0.00;0.00;;;17.20;64.60;;;;;;4962730;28;20393;-75
2023/10/12 12:25:40;;;;;;;0.00;0.00;;;17.10;69.00;;;;;;4963277;28;20272;-75
2023/10/12 12:28:19;;;;;;;0.00;0.00;;;18.10;65.00;;;;;;4973764;28;20067;-75
2023/10/12 12:30:46;;;;;;;0.00;0.00;;;18.40;63.10;;;;;;4964805;28;20346;-75
2023/10/12 12:33:25;;;;;;;0.00;0.00;;;18.90;64.00;;;;;;4959140;28;20051;-75
2023/10/12 12:36:01;;;;;;;0.00;0.00;;;19.60;63.00;;;;;;4964702;28;20050;-74
2023/10/12 12:39:21;;;;;;;0.00;0.00;;;19.40;60.40;;;;;;4961426;28;20086;-74
2023/10/12 12:41:18;;;;;;;0.00;0.00;;;18.90;60.90;;;;;;4955591;28;20058;-75
2023/10/12 12:43:48;;;;;;;0.00;0.00;;;19.00;61.80;;;;;;4966659;28;20063;-74
2023/10/12 12:46:18;;;;;;;0.00;0.00;;;18.60;60.50;;;;;;4967831;28;20513;-75
2023/10/12 12:48:50;;;;;;;0.00;0.00;;;18.50;62.40;;;;;;4965621;28;20557;-75
2023/10/12 12:51:20;;;;;;;0.00;0.00;;;18.50;62.90;;;;;;4966148;28;20051;-75
2023/10/12 12:53:50;;;;;;;0.00;0.00;;;18.50;62.10;;;;;;4962357;28;20047;-75
2023/10/12 12:56:18;;;;;;;0.00;0.00;;;18.60;61.80;;;;;;4985158;28;20090;-75
2023/10/12 12:58:47;;;;;;;0.00;0.00;;;18.20;63.30;;;;;;4963015;28;20783;-75
2023/10/12 13:01:16;;;;;;;19.60;0.90;;;18.20;63.80;;;;;;4963741;28;20053;-76
2023/10/12 13:03:44;;;;;;;0.00;0.00;;;18.20;63.40;;;;;;4970310;28;20500;-75
2023/10/12 13:06:14;;;;;;;0.00;0.00;;;18.10;63.60;;;;;;4967323;28;20113;-75
2023/10/12 13:08:42;;;;;;;0.00;0.00;;;18.10;66.20;;;;;;4971787;28;20053;-75
2023/10/12 13:11:09;;;;;;;0.00;0.00;;;18.10;64.20;;;;;;4968172;28;20053;-75
2023/10/12 13:13:39;;;;;;;0.00;0.00;;;17.70;62.40;;;;;;4985907;28;20065;-76
2023/10/12 13:16:12;;;;;;;0.00;0.00;;;17.60;64.00;;;;;;4968841;28;20582;-75
2023/10/12 13:18:45;;;;;;;0.00;0.00;;;17.40;65.70;;;;;;4972044;28;20432;-75
2023/10/12 13:21:16;;;;;;;0.00;0.00;;;17.40;66.60;;;;;;4967652;28;20059;-76
2023/10/12 13:23:44;;;;;;;0.00;0.00;;;17.20;66.20;;;;;;4966515;28;20051;-76
2023/10/12 13:26:12;;;;;;;0.00;0.00;;;17.30;68.70;;;;;;4969048;28;20066;-76
2023/10/12 13:28:41;;;;;;;0.00;0.00;;;17.30;67.90;;;;;;4969167;28;20055;-75
2023/10/12 13:31:12;;;;;;;0.00;0.00;;;17.40;65.80;;;;;;4965221;28;20046;-74
2023/10/12 13:33:43;;;;;;;0.00;0.00;;;17.30;65.60;;;;;;4969676;28;20047;-75
2023/10/12 13:36:11;;;;;;;0.00;0.00;;;17.30;64.30;;;;;;4969513;28;20051;-75
2023/10/12 13:38:37;;;;;;;0.20;0.20;;;17.30;63.80;;;;;;4964343;28;20075;-75
2023/10/12 13:41:05;;;;;;;0.00;0.00;;;17.10;64.60;;;;;;4962642;28;20617;-75
2023/10/12 13:43:34;;;;;;;0.00;0.00;;;16.90;64.50;;;;;;4965822;28;20073;-76
2023/10/12 13:46:08;;;;;;;0.00;0.00;;;16.60;64.70;;;;;;4968956;28;20050;-76
2023/10/12 13:48:40;;;;;;;0.00;0.00;;;16.30;64.90;;;;;;4964826;28;20113;-75
2023/10/12 13:51:08;;;;;;;0.00;0.00;;;15.90;67.70;;;;;;4967039;28;20102;-76
2023/10/12 13:53:36;;;;;;;0.00;0.00;;;15.80;66.70;;;;;;4966487;28;20051;-76
2023/10/12 13:56:06;;;;;;;0.00;0.00;;;15.80;66.60;;;;;;4967671;28;20076;-75
2023/10/12 13:58:35;;;;;;;0.00;0.00;;;15.60;67.90;;;;;;4965664;28;20055;-75
2023/10/12 14:01:03;;;;;;;0.00;0.00;;;15.50;69.90;;;;;;4962032;28;20473;-76
2023/10/12 14:03:34;;;;;;;5.15;0.52;;;15.40;69.90;;;;;;4963728;28;20089;-76
2023/10/12 14:06:06;;;;;;;14.80;1.40;;;15.30;71.70;;;;;;4970835;28;20104;-77
2023/10/12 14:08:40;;;;;;;17.60;1.60;;;15.20;72.80;;;;;;4972462;28;20110;-75
2023/10/12 14:11:13;;;;;;;16.85;1.55;;;15.10;72.20;;;;;;4971659;28;20050;-76
2023/10/12 14:13:40;;;;;;;10.70;1.30;;;15.00;74.10;;;;;;4964666;28;20136;-77
2023/10/12 14:16:09;;;;;;;11.02;1.67;;;15.00;74.30;;;;;;4967073;28;20133;-76
2023/10/12 14:18:37;;;;;;;13.82;1.52;;;14.90;74.10;;;;;;4967333;28;20078;-76
2023/10/12 14:21:09;;;;;;;9.15;1.20;;;14.80;75.10;;;;;;4960252;28;20058;-75
2023/10/12 14:23:43;;;;;;;8.60;1.50;;;14.80;77.00;;;;;;4960911;28;20098;-75
2023/10/12 14:26:17;;;;;;;8.18;1.42;;;14.80;76.00;;;;;;4961532;28;20129;-75
2023/10/12 14:28:53;;;;;;;8.77;1.10;;;14.80;75.80;;;;;;4961344;28;20051;-77
2023/10/12 14:31:21;;;;;;;6.40;1.27;;;14.90;75.70;;;;;;4963815;28;20076;-76
2023/10/12 14:33:51;;;;;;;12.23;0.98;;;14.80;75.50;;;;;;4964278;28;20512;-77
2023/10/12 14:36:19;;;;;;;15.68;2.13;;;14.80;74.90;;;;;;4964256;28;20110;-76
2023/10/12 14:38:47;;;;;;;8.13;1.27;;;14.80;75.30;;;;;;4962305;28;20507;-76
2023/10/12 14:41:17;;;;;;;13.57;1.60;;;14.90;75.50;;;;;;4965423;28;20050;-77
2023/10/12 14:43:47;;;;;;;13.98;1.30;;;14.90;76.00;;;;;;4962346;28;20055;-76
2023/10/12 14:46:18;;;;;;;9.48;1.50;;;14.90;76.90;;;;;;4961074;28;20495;-76
2023/10/12 14:48:51;;;;;;;9.07;1.30;;;14.90;76.30;;;;;;4961989;28;20051;-76
2023/10/12 14:51:25;;;;;;;9.15;1.25;;;14.80;77.10;;;;;;4971020;28;20058;-76
2023/10/12 14:53:52;;;;;;;16.67;1.95;;;14.90;76.80;;;;;;4965968;28;20495;-76
2023/10/12 14:56:23;;;;;;;4.10;0.85;;;14.90;78.90;;;;;;4963777;28;20042;-76
2023/10/12 14:58:53;;;;;;;4.90;0.77;;;14.90;72.30;;;;;;4981584;28;20047;-77
2023/10/12 15:01:21;;;;;;;13.27;1.52;;;15.00;74.40;;;;;;4959192;28;20214;-76
2023/10/12 15:03:49;;;;;;;17.85;1.45;;;15.00;74.80;;;;;;4966101;28;20137;-76
2023/10/12 15:06:16;;;;;;;18.42;1.55;;;15.00;73.20;;;;;;4966110;28;20081;-76
2023/10/12 15:08:43;;;;;;;7.53;1.40;;;15.10;73.60;;;;;;4985493;28;20054;-77
2023/10/12 15:11:10;;;;;;;4.38;1.23;;;15.00;71.60;;;;;;4962933;28;20542;-77
2023/10/12 15:13:37;;;;;;;5.15;1.30;;;14.90;70.70;;;;;;4963858;28;20494;-77
2023/10/12 15:16:12;;;;;;;5.53;1.17;;;14.90;73.60;;;;;;4960741;28;20059;-77
2023/10/12 15:18:41;;;;;;;13.00;1.50;;;14.90;72.20;;;;;;4978410;28;20061;-76
2023/10/12 15:21:13;;;;;;;3.88;0.75;;;14.70;72.00;;;;;;4971173;28;20069;-77
2023/10/12 15:23:55;;;;;;;8.88;1.00;;;14.70;73.50;;;;;;4965597;28;20070;-77
2023/10/12 15:26:22;;;;;;;8.50;1.15;;;14.70;73.40;;;;;;4963832;28;20047;-77